KCID/CID METAR and TAF weather

Enter ICAO airport designator
Station Type Date Time Source
KCID METAR 2021/10/20 07:52 UTC NOAA

KCID 200752Z AUTO 15007KT 10SM CLR 12/09 A3000 RMK AO2 SLP156 T01170089


Station Type Date Time Source
KCID Decoded METAR 2021/10/20 07:52 UTC NOAA

CEDAR RAPIDS AIRPORT, IA, United States (KCID) 41-53N 91-43W
Oct 20, 2021 - 03:52 AM EDT / 2021.10.20 0752 UTC
Wind: from the SSE (150 degrees) at 8 MPH (7 KT):0
Visibility: 10 mile(s):0
Sky conditions: clear
Temperature: 53.1 F (11.7 C)
Dew Point: 48.0 F (8.9 C)
Relative Humidity: 82%
Pressure (altimeter): 30 in. Hg (1015 hPa)
ob: KCID 200752Z AUTO 15007KT 10SM CLR 12/09 A3000 RMK AO2 SLP156 T01170089
cycle: 8

Station Type Date Time Source
KCID TAF 2021/10/20 06:22 UTC NOAA

TAF KCID 200520Z 2006/2106 15006KT P6SM SCT100
FM201500 18009KT P6SM BKN080
FM201700 18012G20KT P6SM BKN050
FM202200 24011G20KT P6SM BKN060

Example: see airport list